• Join FlightAware (Why Join?)
  • Login
  • US Flag 
02:44PM EDT


 

Airport Tracker/Info


-or-


 

Live Flight TrackerFlight Track Log ✈ SWA3121 ✈ 22-Apr-2013 ✈ KTPA - KRDU

Flight Track Log - Related Links

Times and Time Zones

All times are in EDT time to prevent confusion due to time zone crossing. See the SWA3121 flight status page for this flight to view local times or setup timezone preferences in your user account.

Time Position Orientation Groundspeed Altitude Reporting Facility
EDT Latitude Longitude Course Direction KTS MPH feet Rate Location/Type
02:17PM 28.0000 -82.5333 360° North 155 178 800  Level Tampa TRACON
02:18PM 28.0167 -82.5333 360° North 154 177 1,800 2,760 Climbing Tampa TRACON
02:19PM 28.0667 -82.5333 360° North 227 261 4,700 3,300 Climbing Tampa TRACON
02:20PM 28.1767 -82.5369 358° North 275 316 9,900 3,180 Climbing Jacksonville Center
02:21PM 28.2664 -82.5486 353° North 288 331 12,400 2,820 Climbing Jacksonville Center
02:22PM 28.3644 -82.5600 354° North 328 377 15,600 3,300 Climbing Jacksonville Center
02:23PM 28.4667 -82.5692 355° North 355 409 19,000 3,060 Climbing Jacksonville Center
02:24PM 28.5731 -82.5806 355° North 374 430 21,800 2,580 Climbing Jacksonville Center
02:25PM 28.6858 -82.5919 355° North 385 443 24,200 2,280 Climbing Jacksonville Center
02:26PM 28.8008 -82.6058 354° North 398 458 26,400 2,100 Climbing Jacksonville Center
02:27PM 28.9175 -82.6222 353° North 411 473 28,500 1,980 Climbing Jacksonville Center
02:28PM 29.0386 -82.6408 352° North 426 490 30,400 1,800 Climbing Jacksonville Center
02:29PM 29.1639 -82.6572 353° North 438 504 32,200 1,800 Climbing Jacksonville Center
02:30PM 29.2872 -82.6736 353° North 444 511 34,000 900 Climbing Jacksonville Center
02:31PM 29.4144 -82.6922 353° North 449 517 34,000  Level Jacksonville Center
02:32PM 29.5294 -82.6969 358° North 449 517 34,000 840 Level Jacksonville Center
02:33PM 29.6525 -82.6919 North 444 511 35,700 1,620 Climbing Jacksonville Center
02:34PM 29.7778 -82.6939 359° North 437 503 37,300 1,140 Climbing Jacksonville Center
02:35PM 29.9011 -82.6936 360° North 437 503 38,000 300 Climbing Jacksonville Center
02:36PM 30.0264 -82.6911 North 437 503 38,000  Level Jacksonville Center
02:37PM 30.1472 -82.6883 North 437 503 38,000 300 Level Jacksonville Center
02:39PM 30.2890 -82.6863 North  Level FlightAware Approximate
02:39PM 30.4019 -82.6878 North 442 509 39,000  Level Jacksonville Center
02:40PM 30.5253 -82.6731 North 442 509 39,000  Level Jacksonville Center
02:41PM 30.6461 -82.6222 20° North 441 507 39,000  Level Jacksonville Center
02:42PM 30.7650 -82.5614 24° Northeast 453 521 39,000  Level Jacksonville Center
02:43PM 30.8839 -82.5053 22° Northeast 453 521 39,000  Level Jacksonville Center
02:44PM 31.0028 -82.4442 24° Northeast 458 527 39,000  Level Jacksonville Center
02:45PM 31.1258 -82.3878 21° North 463 533 39,000  Level Jacksonville Center
02:46PM 31.2467 -82.3289 23° Northeast 463 533 39,000  Level Jacksonville Center
02:47PM 31.3758 -82.2697 21° North 463 533 39,000  Level Jacksonville Center
02:48PM 31.4986 -82.2056 24° Northeast 463 533 39,000  Level Jacksonville Center
02:49PM 31.6172 -82.1461 23° Northeast 457 526 39,000  Level Jacksonville Center
02:50PM 31.7278 -82.0914 23° Northeast 469 540 39,000  Level Jacksonville Center
02:51PM 31.8650 -82.0217 23° Northeast 474 545 39,000  Level Jacksonville Center
02:52PM 31.9878 -81.9617 23° Northeast 474 545 39,000  Level Jacksonville Center
02:53PM 32.0981 -81.9092 22° Northeast 474 545 39,000  Level Jacksonville Center
02:54PM 32.2353 -81.8464 21° North 474 545 39,000  Level Jacksonville Center
02:55PM 32.3600 -81.7858 22° Northeast 474 545 39,000  Level Jacksonville Center
02:56PM 32.4703 -81.7328 22° Northeast 474 545 39,000  Level Jacksonville Center
02:57PM 32.6075 -81.6669 22° Northeast 474 545 39,000  Level Jacksonville Center
02:58PM 32.7175 -81.6111 23° Northeast 474 545 39,000  Level Jacksonville Center
02:59PM 32.8442 -81.5525 21° North 474 545 39,000  Level Jacksonville Center
03:00PM 32.9647 -81.4961 21° North 474 545 39,000  Level Jacksonville Center
03:01PM 33.0786 -81.4150 31° Northeast 469 540 39,000  Level Jacksonville Center
03:02PM 33.1903 -81.3289 33° Northeast 469 540 39,000  Level Jacksonville Center
03:03PM 33.3039 -81.2422 33° Northeast 474 545 39,000 -120 Level Jacksonville Center
03:04PM 33.4175 -81.1531 33° Northeast 479 551 38,800 -600 Descending Jacksonville Center
03:05PM 33.5392 -81.0561 34° Northeast 479 551 37,800 -1,020 Descending Jacksonville Center
03:06PM 33.6528 -80.9689 33° Northeast 479 551 36,800 -960 Descending Jacksonville Center
03:07PM 33.7681 -80.8764 34° Northeast 479 551 35,900 -960 Descending Jacksonville Center
03:08PM 33.8836 -80.7861 33° Northeast 479 551 34,900 -1,140 Descending Jacksonville Center
03:09PM 33.9967 -80.6983 33° Northeast 479 551 33,700 -1,680 Descending Jacksonville Center
03:10PM 34.1078 -80.6078 34° Northeast 479 551 31,600 -2,100 Descending Jacksonville Center
03:11PM 34.2147 -80.5222 33° Northeast 474 545 29,500 -2,040 Descending Jacksonville Center
03:12PM 34.3217 -80.4386 33° Northeast 467 537 27,600 -1,980 Descending Jacksonville Center
03:13PM 34.4222 -80.3553 34° Northeast 452 520 25,600 -1,260 Descending Jacksonville Center
03:15PM 34.6128 -80.2022 33° Northeast 408 470 24,000 -600 Descending Washington Center
03:16PM 34.7075 -80.1244 34° Northeast 408 470 24,000 -540 Level Washington Center
03:17PM 34.8003 -80.0461 35° Northeast 408 470 23,000 -540 Descending Washington Center
03:18PM 34.8872 -79.9544 41° Northeast 408 470 23,000 -600 Level Washington Center
03:19PM 34.9697 -79.8603 43° Northeast 403 464 21,800 -1,560 Descending Washington Center
03:20PM 35.0481 -79.7731 42° Northeast 393 452 19,900 -1,860 Descending Washington Center
03:21PM 35.1242 -79.6856 43° Northeast 381 438 18,100 -1,860 Descending Washington Center
03:22PM 35.2042 -79.6031 40° Northeast 366 421 16,200 -1,740 Descending Washington Center
03:23PM 35.2600 -79.5575 34° Northeast 357 411 15,100 -1,740 Descending Washington Center
03:23PM 35.2836 -79.5383 34° Northeast 356 410 14,500 -1,980 Descending Washington Center
03:24PM 35.3111 -79.5219 26° Northeast 340 391 13,900 -1,620 Descending Washington Center
03:24PM 35.3581 -79.4886 30° Northeast 338 389 12,900 -1,740 Descending Washington Center
03:25PM 35.3922 -79.4672 27° Northeast 332 382 12,200 -1,500 Descending Washington Center
03:25PM 35.4456 -79.4317 29° Northeast 327 376 11,400 -1,140 Descending Washington Center
03:25PM 35.4628 -79.4172 34° Northeast 312 359 11,200 -1,200 Descending Washington Center
03:26PM 35.5056 -79.3836 33° Northeast 311 358 10,200 -1,380 Descending Washington Center
03:27PM 35.5406 -79.3267 53° Northeast 276 318 9,300 -1,500 Descending Washington Center
03:27PM 35.5561 -79.2967 57° Northeast 278 320 8,700 -1,440 Descending Washington Center
03:28PM 35.5739 -79.2617 58° Northeast 277 319 8,300 -1,140 Descending Washington Center
03:28PM 35.5939 -79.2217 58° Northeast 273 314 7,600 -1,440 Descending Washington Center
03:29PM 35.6094 -79.1917 57° Northeast 274 315 7,000 -1,440 Descending Washington Center
03:29PM 35.6383 -79.1394 56° Northeast 266 306 6,200 -660 Descending Washington Center
03:30PM 35.6736 -79.0719 57° Northeast 247 284 5,900 -720 Descending Washington Center
03:31PM 35.6958 -79.0269 59° Northeast 214 246 5,000 -1,200 Descending Washington Center
03:31PM 35.7067 -79.0094 53° Northeast 226 260 4,700 -840 Descending Washington Center
03:32PM 35.7158 -78.9842 66° East 214 246 4,400 -840 Descending Washington Center
03:32PM 35.7397 -78.9519 48° Northeast 215 247 3,900 -900 Descending Washington Center
03:33PM 35.7547 -78.9372 39° Northeast 210 242 3,600 -1,080 Descending Washington Center
03:34PM 35.8044 -78.8728 46° Northeast 193 222 2,100 -1,020 Descending Washington Center
03:35PM 35.8325 -78.8356 47° Northeast 136 157 1,400 -780 Descending Washington Center
03:36PM 35.8561 -78.8083 43° Northeast 123 142 700 -720 Descending Washington Center
03:38PM 35.8667 -78.7833 51° Northeast  Level FlightAware Approximate